Hauptseite
METAR-TAF:

METAR-TAF

Flughäfen :

Puerto Francisco de Orellana, Ecuador

Breite: 00-27-46S, Länge: 076-59-12W, Höhe: 254 m

Beobachtung

Neuester Wetterbericht von vor 13 Stunden und 9 Minuten, um 22:00 UTC
Wind 4 kt aus Ost/Nordost
Temperatur 25°C
Luftfeuchtigkeit 89%
Luftdruck 1014 hPa
Sichtweite 10 km oder mehr
Aufgelockert bewölkt in der Höhe von 2000 ft
Durchbrochene Bewölkung in der Höhe von 3000 ft
Geschlossene Wolkendecke in der Höhe von 8000 ft

METAR: SECO 212200Z 06004KT 9999 SCT020 BKN030 OVC080 25/23 Q1014 RMK A2996

Zeit: 06:09 (11:09 UTC)


TAF: fehlend

Wetterbeobachtungen und Prognosen von mehr als 4000 Flughäfen (METAR und TAF Bericht).

Die verfügbaren Stationen werden durch gelbe und rote Markierungen auf der Karte dargestellt.

Führen Sie die Maus auf sie, um den Namen der Station zu sehen.

Darauf klicken, um die Beobachtung von Wetterbeobachtungen und Prognosen zu sehen.

Um die Karte zu ändern : klicken Sie auf den grünen Tasten mit einem schwarzen Kreuz Zum Vergrößern, auf den grünen Button mit einem Gedankenstrich zu verkleinern, oder auf die grünen Pfeile für benachbarte Karten.


METAR-TAF: